Time;durP1;ratioP1;P1;durP2;ratioP2;P2;SDS_P1;SDS_P2;PMS_P1;PMS_P2;Temp;Humidity;BMP_temperature;BMP_pressure;BME280_temperature;BME280_humidity;BME280_pressure;Samples;Min_cycle;Max_cycle;Signal;HPM_P1;HPM_P2
2022/03/16 00:02:21;;;;;;;17.62;8.78;;;;;;;2.85;93.99;148383.70;1742388;82;20964;-59
2022/03/16 00:04:54;;;;;;;22.67;9.68;;;;;;;2.82;93.72;148375.97;1742231;81;21943;-59
2022/03/16 00:07:22;;;;;;;18.07;7.90;;;;;;;2.80;93.61;148370.81;1742383;82;21011;-58
2022/03/16 00:09:49;;;;;;;20.92;8.65;;;;;;;2.78;93.70;148364.34;1742383;81;21036;-59
2022/03/16 00:12:16;;;;;;;18.60;9.03;;;;;;;2.76;93.73;148360.45;1741937;82;21052;-58
2022/03/16 00:14:45;;;;;;;25.45;9.60;;;;;;;2.75;93.96;148357.88;1778597;80;21509;-58
2022/03/16 00:17:12;;;;;;;18.95;8.83;;;;;;;2.72;93.91;148351.47;1778567;80;21528;-58
2022/03/16 00:19:40;;;;;;;23.32;8.75;;;;;;;2.70;93.70;148345.00;1741626;81;21034;-57
2022/03/16 00:22:07;;;;;;;17.45;9.05;;;;;;;2.67;93.94;148337.27;1741839;81;21004;-62
2022/03/16 00:24:34;;;;;;;17.95;8.70;;;;;;;2.66;93.97;148334.69;1741384;82;21134;-63
2022/03/16 00:27:01;;;;;;;18.52;8.65;;;;;;;2.63;94.27;148326.95;1741760;81;21091;-63
2022/03/16 00:29:29;;;;;;;22.93;9.55;;;;;;;2.61;94.41;148321.80;1778444;80;21792;-63
2022/03/16 00:31:56;;;;;;;19.55;8.68;;;;;;;2.58;94.53;148316.64;1778979;80;21044;-63
2022/03/16 00:34:23;;;;;;;21.73;9.05;;;;;;;2.56;94.63;148311.48;1748338;80;21430;-62
2022/03/16 00:36:50;;;;;;;17.57;8.40;;;;;;;2.55;94.79;148308.91;1778668;80;21678;-64
2022/03/16 00:39:16;;;;;;;19.70;9.63;;;;;;;2.53;94.94;148302.44;1778599;80;20999;-62
2022/03/16 00:41:44;;;;;;;19.87;9.78;;;;;;;2.52;95.21;148301.13;1778681;79;22749;-62
2022/03/16 00:44:11;;;;;;;24.57;9.05;;;;;;;2.49;95.58;148293.41;1742118;82;20937;-62
2022/03/16 00:46:40;;;;;;;24.35;9.68;;;;;;;2.48;95.88;148290.83;1713512;81;21084;-58
2022/03/16 00:49:07;;;;;;;22.45;8.58;;;;;;;2.50;96.59;148294.72;1778944;80;20937;-62
2022/03/16 00:51:36;;;;;;;18.30;9.18;;;;;;;2.48;96.92;148289.56;1741336;82;21473;-62
2022/03/16 00:54:03;;;;;;;24.92;9.83;;;;;;;2.47;97.12;148286.98;1778952;80;21130;-63
2022/03/16 00:56:30;;;;;;;23.05;9.48;;;;;;;2.46;97.62;148285.67;1778286;80;20995;-63
2022/03/16 00:58:56;;;;;;;23.45;9.13;;;;;;;2.43;97.64;148279.25;1742255;82;21021;-63
2022/03/16 01:01:23;;;;;;;21.37;9.85;;;;;;;2.41;97.77;148274.05;1778986;80;21264;-63
2022/03/16 01:03:51;;;;;;;24.63;10.05;;;;;;;2.40;97.82;148270.20;1774324;80;21023;-63
2022/03/16 01:06:20;;;;;;;22.15;9.60;;;;;;;2.39;97.88;148268.89;1779117;80;21247;-63
2022/03/16 01:08:46;;;;;;;22.77;9.90;;;;;;;2.39;98.50;148267.63;1742237;82;21028;-63
2022/03/16 01:11:14;;;;;;;21.35;9.33;;;;;;;2.38;98.52;148265.06;1779145;80;20996;-63
2022/03/16 01:13:42;;;;;;;20.37;9.20;;;;;;;2.37;98.97;148263.75;1779080;79;21004;-63
2022/03/16 01:16:12;;;;;;;22.25;9.05;;;;;;;2.37;99.00;148262.48;1741970;82;20996;-64
2022/03/16 01:18:39;;;;;;;24.12;9.55;;;;;;;2.37;99.17;148262.48;1741654;82;21295;-62
2022/03/16 01:21:12;;;;;;;22.73;9.33;;;;;;;2.35;99.25;148258.59;1741889;82;20933;-63
2022/03/16 01:23:39;;;;;;;25.48;9.48;;;;;;;2.34;99.57;148254.75;1741388;82;21052;-62
2022/03/16 01:26:06;;;;;;;21.50;9.43;;;;;;;2.33;99.27;148252.17;1741991;81;21005;-64
2022/03/16 01:28:33;;;;;;;20.55;8.53;;;;;;;2.31;98.92;148246.97;1778459;80;21079;-62
2022/03/16 01:31:01;;;;;;;20.75;10.15;;;;;;;2.28;98.84;148241.81;1746992;82;21136;-62
2022/03/16 01:33:29;;;;;;;18.35;9.98;;;;;;;2.27;99.04;148239.25;1736915;82;21047;-62
2022/03/16 01:35:58;;;;;;;19.27;9.60;;;;;;;2.24;99.28;148231.52;1717839;83;21097;-63
2022/03/16 01:38:25;;;;;;;22.98;10.48;;;;;;;2.21;99.22;148223.78;1737228;82;22205;-63
2022/03/16 01:40:52;;;;;;;22.60;8.73;;;;;;;2.18;99.30;148216.06;1718253;82;21609;-62
2022/03/16 01:43:20;;;;;;;25.10;10.43;;;;;;;2.14;99.45;148207.02;1747360;81;21973;-62
2022/03/16 01:45:48;;;;;;;18.52;9.40;;;;;;;2.12;99.53;148201.86;1716376;83;21036;-63
2022/03/16 01:48:16;;;;;;;22.87;9.80;;;;;;;2.11;99.42;148198.02;1736837;82;21002;-63
2022/03/16 01:50:47;;;;;;;17.95;9.45;;;;;;;2.08;99.41;148190.25;1717401;83;21025;-63
2022/03/16 01:53:14;;;;;;;16.82;9.03;;;;;;;2.07;99.43;148187.67;1737134;82;21076;-62
2022/03/16 01:55:42;;;;;;;22.02;10.23;;;;;;;2.05;99.53;148183.83;1717905;83;21547;-63
2022/03/16 01:58:10;;;;;;;22.15;10.08;;;;;;;2.04;99.47;148179.94;1710402;82;21435;-63
2022/03/16 02:00:40;;;;;;;19.00;9.50;;;;;;;2.02;99.85;148176.09;1738041;82;21003;-63
2022/03/16 02:03:08;;;;;;;22.25;9.78;;;;;;;2.00;100.00;148170.94;1718080;82;20974;-63
2022/03/16 02:05:36;;;;;;;27.40;9.90;;;;;;;1.96;100.00;148161.91;1737762;82;21326;-63
2022/03/16 02:08:05;;;;;;;22.20;10.43;;;;;;;1.94;100.00;148156.75;1718218;83;22187;-62
2022/03/16 02:10:34;;;;;;;23.02;11.10;;;;;;;1.91;100.00;148149.03;1737787;82;21041;-63
2022/03/16 02:13:02;;;;;;;24.15;9.63;;;;;;;1.89;100.00;148142.56;1721294;82;21523;-64
2022/03/16 02:15:31;;;;;;;23.60;9.63;;;;;;;1.88;100.00;148139.98;1716534;82;21049;-63
2022/03/16 02:17:59;;;;;;;26.25;10.13;;;;;;;1.86;100.00;148136.09;1737411;82;21085;-63
2022/03/16 02:20:28;;;;;;;21.65;9.63;;;;;;;1.85;100.00;148133.53;1720781;83;21435;-63
2022/03/16 02:23:02;;;;;;;26.45;10.35;;;;;;;1.85;100.00;148133.53;1718226;82;21020;-62
2022/03/16 02:25:30;;;;;;;20.17;9.55;;;;;;;1.83;100.00;148128.38;1717962;83;21410;-64
2022/03/16 02:27:59;;;;;;;22.45;9.60;;;;;;;1.81;100.00;148124.53;1737637;82;21023;-63
2022/03/16 02:30:28;;;;;;;21.97;9.55;;;;;;;1.79;100.00;148118.06;1714658;82;21528;-63
2022/03/16 02:32:56;;;;;;;16.52;8.95;;;;;;;1.78;100.00;148116.81;1758633;80;21570;-63
2022/03/16 02:35:23;;;;;;;19.70;9.13;;;;;;;1.76;100.00;148110.34;1712134;83;21044;-64
2022/03/16 02:37:52;;;;;;;27.62;10.50;;;;;;;1.74;100.00;148106.45;1712043;83;21481;-62
2022/03/16 02:40:23;;;;;;;21.45;9.68;;;;;;;1.73;100.00;148102.63;1711611;82;21537;-63
2022/03/16 02:42:51;;;;;;;20.62;9.98;;;;;;;1.70;100.00;148097.47;1731216;80;21027;-63
2022/03/16 02:45:18;;;;;;;28.05;11.10;;;;;;;1.69;100.00;148094.89;1741629;81;21133;-64
2022/03/16 02:47:45;;;;;;;20.05;9.83;;;;;;;1.69;100.00;148094.89;1778804;80;21457;-63
2022/03/16 02:50:13;;;;;;;22.15;10.05;;;;;;;1.66;100.00;148087.17;1778997;80;21044;-62
2022/03/16 02:52:41;;;;;;;23.15;10.28;;;;;;;1.65;100.00;148084.55;1779309;80;21389;-63
2022/03/16 02:55:10;;;;;;;24.55;10.20;;;;;;;1.65;100.00;148084.55;1749180;80;21378;-63
2022/03/16 02:57:38;;;;;;;22.32;10.28;;;;;;;1.65;100.00;148084.55;1778699;80;21655;-63
2022/03/16 03:00:08;;;;;;;21.48;10.13;;;;;;;1.64;100.00;148081.97;1778552;80;21063;-63
2022/03/16 03:02:37;;;;;;;27.65;10.43;;;;;;;1.64;100.00;148080.70;1779443;80;20960;-63
2022/03/16 03:05:07;;;;;;;23.47;10.93;;;;;;;1.64;100.00;148081.97;1779406;80;20924;-62
2022/03/16 03:07:35;;;;;;;24.27;10.13;;;;;;;1.63;100.00;148079.39;1778760;80;21064;-63
2022/03/16 03:10:04;;;;;;;28.05;10.90;;;;;;;1.63;100.00;148078.13;1778889;80;21128;-63
2022/03/16 03:12:35;;;;;;;22.82;10.53;;;;;;;1.63;100.00;148079.39;1779239;80;20964;-63
2022/03/16 03:15:04;;;;;;;29.18;10.88;;;;;;;1.64;100.00;148080.70;1779815;80;21046;-63
2022/03/16 03:17:33;;;;;;;22.22;11.18;;;;;;;1.63;100.00;148078.13;1779275;80;21087;-58
2022/03/16 03:19:59;;;;;;;28.27;11.43;;;;;;;1.63;100.00;148079.39;1779293;80;21568;-63
2022/03/16 03:22:32;;;;;;;24.77;11.90;;;;;;;1.63;100.00;148079.39;1778579;80;20975;-62
2022/03/16 03:24:58;;;;;;;22.87;10.82;;;;;;;1.64;100.00;148080.70;1778798;80;20925;-58
2022/03/16 03:27:25;;;;;;;25.57;11.25;;;;;;;1.63;100.00;148078.13;1779107;80;21075;-58
2022/03/16 03:29:52;;;;;;;22.87;11.25;;;;;;;1.61;100.00;148074.23;1779873;79;20992;-59
2022/03/16 03:32:19;;;;;;;23.20;10.50;;;;;;;1.61;100.00;148074.23;1784917;80;21082;-62
2022/03/16 03:34:50;;;;;;;24.98;11.15;;;;;;;1.59;100.00;148069.09;1784587;80;21197;-58
2022/03/16 03:37:17;;;;;;;26.57;10.58;;;;;;;1.58;100.00;148066.52;1784893;80;21094;-59
2022/03/16 03:39:45;;;;;;;20.95;10.23;;;;;;;1.54;100.00;148056.22;1785156;80;20995;-64
2022/03/16 03:42:12;;;;;;;26.70;10.88;;;;;;;1.53;100.00;148053.64;1784817;80;21024;-63
2022/03/16 03:44:40;;;;;;;24.32;10.65;;;;;;;1.52;100.00;148052.33;1784969;80;20968;-63
2022/03/16 03:47:08;;;;;;;21.15;9.75;;;;;;;1.52;100.00;148051.06;1784856;80;21200;-57
2022/03/16 03:49:37;;;;;;;20.57;9.00;;;;;;;1.52;100.00;148051.06;1747750;81;21354;-58
2022/03/16 03:52:05;;;;;;;17.67;9.25;;;;;;;1.51;100.00;148048.50;1747352;82;21063;-57
2022/03/16 03:54:32;;;;;;;17.95;8.90;;;;;;;1.46;100.00;148035.62;1737002;82;21073;-63
2022/03/16 03:57:00;;;;;;;17.05;8.35;;;;;;;1.40;100.00;148022.69;1717878;83;21014;-63
2022/03/16 03:59:27;;;;;;;15.58;7.50;;;;;;;1.37;100.00;148014.97;1737349;82;21300;-63
2022/03/16 04:01:54;;;;;;;18.27;7.83;;;;;;;1.33;100.00;148004.67;1718099;83;21061;-58
2022/03/16 04:04:21;;;;;;;19.77;7.53;;;;;;;1.31;100.00;147999.53;1736910;82;21866;-63
2022/03/16 04:06:48;;;;;;;23.62;8.23;;;;;;;1.29;100.00;147994.38;1717448;83;20997;-58
2022/03/16 04:09:16;;;;;;;23.02;8.38;;;;;;;1.27;100.00;147989.23;1737016;82;21082;-64
2022/03/16 04:11:44;;;;;;;16.40;7.75;;;;;;;1.26;100.00;147986.66;1717092;83;21187;-63
2022/03/16 04:14:11;;;;;;;20.45;7.87;;;;;;;1.24;100.00;147982.77;1737429;82;21099;-63
2022/03/16 04:16:39;;;;;;;19.85;8.20;;;;;;;1.25;100.00;147984.08;1721171;82;21027;-63
2022/03/16 04:19:06;;;;;;;17.32;7.67;;;;;;;1.25;100.00;147984.08;1717922;82;20978;-62
2022/03/16 04:21:34;;;;;;;20.15;7.15;;;;;;;1.26;100.00;147986.66;1737466;82;21098;-63
2022/03/16 04:24:02;;;;;;;16.70;7.83;;;;;;;1.28;100.00;147991.80;1718102;83;21099;-64
2022/03/16 04:26:29;;;;;;;18.73;8.45;;;;;;;1.31;100.00;147999.53;1737745;82;21035;-63
2022/03/16 04:28:56;;;;;;;18.57;8.20;;;;;;;1.34;100.00;148007.25;1718192;83;21041;-57
2022/03/16 04:31:22;;;;;;;15.72;7.67;;;;;;;1.38;100.00;148016.28;1732569;82;21496;-58
2022/03/16 04:33:49;;;;;;;18.07;7.85;;;;;;;1.41;100.00;148025.27;1729524;82;21067;-63
2022/03/16 04:36:16;;;;;;;24.07;8.93;;;;;;;1.43;99.84;148029.16;1729261;82;21766;-58
2022/03/16 04:38:43;;;;;;;21.30;7.75;;;;;;;1.42;99.56;148027.84;1729251;82;21036;-58
2022/03/16 04:41:10;;;;;;;16.40;7.70;;;;;;;1.41;99.52;148025.27;1729394;82;21126;-62
2022/03/16 04:43:38;;;;;;;19.23;7.83;;;;;;;1.43;99.29;148030.42;1729212;82;21031;-62
2022/03/16 04:46:05;;;;;;;27.90;8.18;;;;;;;1.43;99.20;148030.42;1729598;82;20973;-62
2022/03/16 04:48:31;;;;;;;15.48;7.00;;;;;;;1.43;99.16;148030.42;1729075;83;21134;-62
2022/03/16 04:50:58;;;;;;;17.87;7.65;;;;;;;1.41;98.79;148024.00;1729484;82;20948;-63
2022/03/16 04:53:27;;;;;;;19.02;7.67;;;;;;;1.40;98.67;148022.69;1729107;82;21052;-63
2022/03/16 04:55:55;;;;;;;19.65;7.25;;;;;;;1.38;98.58;148016.28;1729617;83;21015;-64
2022/03/16 04:58:23;;;;;;;18.20;8.65;;;;;;;1.36;98.54;148012.39;1729200;82;21083;-57
2022/03/16 05:00:49;;;;;;;17.25;7.28;;;;;;;1.34;98.26;148007.25;1729445;83;21657;-58
2022/03/16 05:03:18;;;;;;;22.50;8.83;;;;;;;1.32;98.00;148000.78;1728822;82;21615;-58
2022/03/16 05:05:47;;;;;;;19.90;7.92;;;;;;;1.31;98.24;147999.53;1728462;82;21561;-58
2022/03/16 05:08:14;;;;;;;23.15;9.43;;;;;;;1.32;98.30;148002.09;1728714;82;21047;-58
2022/03/16 05:10:42;;;;;;;42.98;8.43;;;;;;;1.33;97.79;148004.67;1728928;82;21559;-59
2022/03/16 05:13:10;;;;;;;19.42;7.70;;;;;;;1.35;97.82;148009.81;1728744;82;21144;-58
2022/03/16 05:15:38;;;;;;;15.18;6.45;;;;;;;1.38;97.94;148017.55;1728062;82;21552;-63
2022/03/16 05:18:06;;;;;;;16.10;7.70;;;;;;;1.43;97.99;148030.42;1729034;82;21023;-63
2022/03/16 05:20:33;;;;;;;24.55;7.75;;;;;;;1.51;97.95;148048.50;1728760;82;21078;-63
2022/03/16 05:23:00;;;;;;;17.12;6.78;;;;;;;1.57;97.78;148063.94;1729621;82;21500;-63
2022/03/16 05:25:30;;;;;;;17.25;6.85;;;;;;;1.60;97.78;148070.41;1728562;82;21853;-63
2022/03/16 05:27:58;;;;;;;15.48;7.42;;;;;;;1.65;97.96;148084.55;1728890;82;21477;-58
2022/03/16 05:30:26;;;;;;;16.12;7.17;;;;;;;1.69;97.71;148094.89;1729187;82;21051;-62
2022/03/16 05:32:56;;;;;;;19.17;7.35;;;;;;;1.70;97.69;148097.47;1729399;82;21496;-64
2022/03/16 05:35:22;;;;;;;14.98;7.30;;;;;;;1.71;97.91;148100.05;1729566;82;21083;-64
2022/03/16 05:37:49;;;;;;;19.00;7.80;;;;;;;1.76;98.13;148111.61;1729201;82;21271;-58
2022/03/16 05:40:16;;;;;;;15.25;7.78;;;;;;;1.81;98.20;148124.53;1728560;82;21050;-62
2022/03/16 05:42:44;;;;;;;17.05;7.47;;;;;;;1.89;98.04;148143.88;1728882;82;20975;-62
2022/03/16 05:45:11;;;;;;;17.55;6.67;;;;;;;2.00;98.03;148170.94;1728588;82;21043;-58
2022/03/16 05:47:38;;;;;;;18.90;6.92;;;;;;;2.23;97.46;148227.67;1728510;82;21063;-62
2022/03/16 05:50:07;;;;;;;18.05;7.20;;;;;;;2.57;96.59;148314.06;1729262;82;22461;-58
2022/03/16 05:52:34;;;;;;;12.47;6.12;;;;;;;2.81;94.10;148373.41;1729130;82;21055;-59
2022/03/16 05:55:01;;;;;;;13.05;6.12;;;;;;;3.13;92.59;148453.36;1729793;82;21051;-58
2022/03/16 05:57:29;;;;;;;16.82;6.70;;;;;;;3.37;89.75;148512.72;1729459;82;21461;-59
2022/03/16 05:59:57;;;;;;;14.55;6.25;;;;;;;3.66;89.22;148583.72;1729793;82;21402;-56
2022/03/16 06:02:24;;;;;;;13.03;5.90;;;;;;;3.96;85.95;148658.58;1728952;82;21871;-57
2022/03/16 06:04:52;;;;;;;15.30;5.87;;;;;;;4.09;84.00;148692.16;1729065;82;21031;-58
2022/03/16 06:07:20;;;;;;;14.05;6.55;;;;;;;4.13;83.09;148702.48;1728648;82;21449;-58
2022/03/16 06:09:48;;;;;;;10.25;5.17;;;;;;;3.94;80.77;148654.73;1729350;82;21549;-58
2022/03/16 06:12:15;;;;;;;20.00;5.85;;;;;;;3.63;80.67;148577.25;1729464;82;20952;-58
2022/03/16 06:14:42;;;;;;;15.75;6.25;;;;;;;3.42;81.33;148524.34;1729186;82;22190;-58
2022/03/16 06:17:12;;;;;;;14.60;6.15;;;;;;;3.28;81.62;148489.50;1729390;82;21382;-58
2022/03/16 06:19:39;;;;;;;17.77;6.45;;;;;;;2.92;81.51;148399.17;1729331;82;21054;-59
2022/03/16 06:22:06;;;;;;;21.93;6.60;;;;;;;2.92;81.51;148399.17;1729605;82;21438;-58
2022/03/16 06:24:34;;;;;;;15.85;6.47;;;;;;;2.83;81.91;148377.23;1729522;82;21032;-62
2022/03/16 06:27:02;;;;;;;16.37;6.55;;;;;;;2.77;82.65;148361.77;1729803;82;21297;-64
2022/03/16 06:29:30;;;;;;;12.85;5.67;;;;;;;2.79;83.76;148368.23;1729497;82;21501;-62
2022/03/16 06:31:57;;;;;;;14.13;6.03;;;;;;;2.82;83.41;148375.97;1718458;82;21054;-59
2022/03/16 06:34:25;;;;;;;21.82;8.93;;;;;;;2.79;83.20;148368.23;1650872;84;22679;-57
2022/03/16 06:36:52;;;;;;;17.62;7.70;;;;;;;2.85;83.24;148383.70;1648018;87;21088;-63
2022/03/16 06:39:19;;;;;;;16.97;7.83;;;;;;;2.89;82.58;148391.44;1648062;85;22560;-58
2022/03/16 06:41:46;;;;;;;15.45;7.10;;;;;;;2.88;82.41;148388.86;1648103;87;21145;-59
2022/03/16 06:44:13;;;;;;;18.57;6.03;;;;;;;2.88;82.65;148390.17;1671730;85;21063;-58
2022/03/16 06:46:41;;;;;;;14.65;5.35;;;;;;;2.86;81.94;148386.28;1675010;85;21315;-58
2022/03/16 06:49:07;;;;;;;12.10;6.05;;;;;;;2.89;81.85;148391.44;1675068;84;21097;-58
2022/03/16 06:51:34;;;;;;;14.78;5.12;;;;;;;2.99;81.94;148418.53;1674796;85;22178;-63
2022/03/16 06:54:02;;;;;;;19.40;5.05;;;;;;;2.99;81.94;148418.53;1675405;85;21548;-63
2022/03/16 06:56:29;;;;;;;9.50;4.47;;;;;;;3.04;81.89;148428.84;1674986;84;21122;-63
2022/03/16 06:58:56;;;;;;;14.25;4.45;;;;;;;3.02;80.86;148425.00;1675271;85;21123;-64
2022/03/16 07:01:25;;;;;;;11.60;4.35;;;;;;;2.97;80.76;148412.06;1675359;85;21137;-64
2022/03/16 07:03:52;;;;;;;15.63;4.28;;;;;;;2.92;80.35;148399.17;1675162;84;21134;-62
2022/03/16 07:06:19;;;;;;;13.45;4.67;;;;;;;2.89;80.72;148391.44;1674971;85;21101;-63
2022/03/16 07:08:47;;;;;;;15.50;4.75;;;;;;;2.84;80.44;148381.12;1674978;85;21057;-58
2022/03/16 07:11:18;;;;;;;12.18;4.45;;;;;;;2.81;80.71;148373.41;1645681;85;20987;-59
2022/03/16 07:14:30;;;;;;;9.58;4.42;;;;;;;2.88;81.19;148388.86;1674985;85;21090;-64
2022/03/16 07:16:14;;;;;;;9.30;4.12;;;;;;;3.06;80.63;148434.00;1674045;85;21302;-63
2022/03/16 07:18:43;;;;;;;10.75;4.50;;;;;;;3.42;79.61;148525.61;1674736;85;21104;-64
2022/03/16 07:21:11;;;;;;;10.00;4.60;;;;;;;4.06;76.23;148684.42;1675370;84;21011;-63
2022/03/16 07:23:38;;;;;;;12.33;4.75;;;;;;;4.06;76.23;148684.42;1674883;85;21042;-67
2022/03/16 07:26:05;;;;;;;11.18;4.47;;;;;;;3.97;75.61;148662.47;1675820;85;21046;-63
2022/03/16 07:28:33;;;;;;;9.63;4.17;;;;;;;3.97;75.84;148662.47;1675357;85;21930;-58
2022/03/16 07:31:00;;;;;;;13.35;4.28;;;;;;;4.19;75.35;148716.70;1675782;83;21002;-58
2022/03/16 07:33:28;;;;;;;15.23;4.25;;;;;;;4.47;73.92;148785.17;1726918;82;32493;-58
2022/03/16 07:35:55;;;;;;;10.00;4.60;;;;;;;4.59;72.79;148816.14;1727868;83;20953;-58
2022/03/16 07:38:22;;;;;;;10.80;4.60;;;;;;;4.48;72.50;148787.75;1728168;83;20985;-58
2022/03/16 07:40:49;;;;;;;13.50;4.47;;;;;;;4.20;73.05;148719.28;1727883;83;21318;-58
2022/03/16 07:43:17;;;;;;;12.80;4.25;;;;;;;3.91;74.46;148646.98;1727898;83;20874;-61
2022/03/16 07:45:44;;;;;;;13.58;4.95;;;;;;;3.73;75.33;148603.09;1727111;82;21045;-58
2022/03/16 07:48:11;;;;;;;17.57;4.75;;;;;;;3.64;75.55;148579.81;1727582;83;21275;-59
2022/03/16 07:50:39;;;;;;;11.93;5.10;;;;;;;3.47;76.85;148535.97;1727467;83;21072;-59
2022/03/16 07:53:06;;;;;;;18.67;4.72;;;;;;;3.34;77.35;148503.72;1727165;83;20942;-57
2022/03/16 07:55:33;;;;;;;11.35;4.60;;;;;;;3.25;77.82;148481.77;1726438;83;21060;-58
2022/03/16 07:58:01;;;;;;;8.83;3.87;;;;;;;3.10;78.92;148444.36;1727294;83;21655;-57
2022/03/16 08:00:29;;;;;;;11.15;4.60;;;;;;;3.10;78.92;148444.36;1726781;83;21092;-59
2022/03/16 08:02:57;;;;;;;14.95;5.28;;;;;;;3.01;79.31;148422.42;1727270;83;21084;-63
2022/03/16 08:05:24;;;;;;;9.33;4.58;;;;;;;2.96;80.45;148409.48;1727385;83;21558;-63
2022/03/16 08:07:55;;;;;;;10.32;4.35;;;;;;;2.99;80.89;148418.53;1727029;82;21604;-63
2022/03/16 08:10:23;;;;;;;9.53;4.08;;;;;;;2.96;80.43;148409.48;1726961;83;21092;-63
2022/03/16 08:12:50;;;;;;;13.58;4.47;;;;;;;2.93;80.39;148403.06;1727708;83;21084;-63
2022/03/16 08:15:19;;;;;;;9.25;4.33;;;;;;;2.95;80.69;148406.91;1696479;84;21640;-63
2022/03/16 08:17:46;;;;;;;10.93;4.15;;;;;;;2.95;80.78;148406.91;1687048;84;21262;-63
2022/03/16 08:20:13;;;;;;;11.00;4.45;;;;;;;2.91;80.99;148396.59;1674802;85;21035;-65
2022/03/16 08:22:40;;;;;;;9.73;4.10;;;;;;;2.86;81.81;148384.97;1675230;85;21063;-64
2022/03/16 08:25:10;;;;;;;12.95;4.50;;;;;;;2.88;81.66;148388.86;1675463;84;21035;-63
2022/03/16 08:27:39;;;;;;;14.30;4.15;;;;;;;2.96;81.83;148409.48;1675460;85;21105;-63
2022/03/16 08:30:08;;;;;;;16.40;5.33;;;;;;;2.96;81.83;148409.48;1643778;86;22375;-63
2022/03/16 08:32:36;;;;;;;13.98;4.30;;;;;;;2.98;81.48;148415.95;1671876;85;20986;-63
2022/03/16 08:35:06;;;;;;;9.98;4.30;;;;;;;2.98;80.55;148414.64;1668166;86;21075;-63
2022/03/16 08:37:34;;;;;;;10.35;4.55;;;;;;;2.93;81.14;148403.06;1667924;84;21094;-63
2022/03/16 08:40:00;;;;;;;11.88;4.85;;;;;;;2.93;81.14;148403.06;1667885;86;21114;-59
2022/03/16 08:42:27;;;;;;;9.58;4.25;;;;;;;2.95;80.71;148406.91;1667629;86;21129;-58
2022/03/16 08:44:56;;;;;;;13.62;4.25;;;;;;;2.91;80.79;148396.59;1668132;85;21556;-58
2022/03/16 08:47:23;;;;;;;11.80;3.67;;;;;;;2.82;80.84;148374.66;1668170;85;21094;-58
2022/03/16 08:49:53;;;;;;;11.97;4.75;;;;;;;2.76;80.42;148360.45;1667474;86;21071;-58
2022/03/16 08:52:22;;;;;;;10.43;4.00;;;;;;;2.72;80.54;148350.16;1667612;84;21099;-57
2022/03/16 08:54:50;;;;;;;8.98;4.03;;;;;;;2.72;80.18;148351.47;1667744;86;21141;-58
2022/03/16 08:57:17;;;;;;;9.43;3.75;;;;;;;2.74;80.41;148354.03;1667786;86;20956;-58
2022/03/16 08:59:46;;;;;;;9.93;3.98;;;;;;;2.92;80.11;148399.17;1667448;86;20998;-58
2022/03/16 09:02:14;;;;;;;14.85;4.03;;;;;;;2.96;78.46;148410.80;1678372;83;20991;-59
2022/03/16 09:04:41;;;;;;;13.15;4.60;;;;;;;2.96;78.46;148410.80;1715801;83;21063;-57
2022/03/16 09:07:09;;;;;;;14.85;4.42;;;;;;;3.04;79.08;148430.16;1716233;83;21412;-58
2022/03/16 09:09:36;;;;;;;11.73;4.15;;;;;;;3.13;78.65;148453.36;1715855;83;21055;-63
2022/03/16 09:12:08;;;;;;;9.68;3.98;;;;;;;3.13;77.64;148453.36;1716323;83;21043;-63
2022/03/16 09:14:35;;;;;;;15.43;4.17;;;;;;;3.07;78.28;148437.89;1716638;82;21723;-63
2022/03/16 09:17:02;;;;;;;12.33;4.08;;;;;;;3.06;77.72;148435.31;1716479;83;21522;-64
2022/03/16 09:19:30;;;;;;;14.93;3.85;;;;;;;3.04;77.40;148430.16;1716192;83;21252;-63
2022/03/16 09:22:00;;;;;;;9.75;3.90;;;;;;;2.97;77.39;148413.37;1716190;83;21052;-64
2022/03/16 09:24:26;;;;;;;10.18;4.10;;;;;;;2.88;77.41;148388.86;1716162;83;21421;-64
2022/03/16 09:26:54;;;;;;;13.25;4.25;;;;;;;2.73;77.11;148352.72;1716471;83;21117;-63
2022/03/16 09:29:22;;;;;;;8.93;3.55;;;;;;;2.61;77.66;148321.80;1716634;83;21161;-62
2022/03/16 09:31:49;;;;;;;10.90;4.60;;;;;;;2.52;78.21;148301.13;1716535;82;21202;-64
2022/03/16 09:34:16;;;;;;;15.05;4.37;;;;;;;2.50;79.00;148295.97;1715956;83;21504;-63
2022/03/16 09:36:45;;;;;;;10.70;4.40;;;;;;;2.60;79.56;148319.22;1716270;83;21553;-58
2022/03/16 09:39:12;;;;;;;14.20;4.87;;;;;;;2.70;78.65;148346.31;1716344;82;21039;-63
2022/03/16 09:41:39;;;;;;;9.48;3.83;;;;;;;2.75;78.12;148357.88;1715941;83;21047;-63
2022/03/16 09:44:07;;;;;;;10.90;4.55;;;;;;;2.83;77.79;148378.55;1716306;82;21482;-63
2022/03/16 09:46:36;;;;;;;10.72;4.20;;;;;;;2.90;77.15;148394.02;1716035;83;21524;-63
2022/03/16 09:49:07;;;;;;;8.15;3.87;;;;;;;2.91;76.57;148396.59;1716856;83;21060;-58
2022/03/16 09:51:38;;;;;;;13.93;4.65;;;;;;;2.89;76.54;148392.75;1717150;83;21066;-63
2022/03/16 09:54:05;;;;;;;9.65;3.92;;;;;;;2.89;76.32;148391.44;1717426;83;21016;-57
2022/03/16 09:56:33;;;;;;;8.48;4.28;;;;;;;2.88;75.56;148388.86;1716921;83;21129;-58
2022/03/16 09:59:00;;;;;;;10.20;4.50;;;;;;;2.89;75.45;148391.44;1717312;83;20989;-58
2022/03/16 10:01:28;;;;;;;14.53;4.12;;;;;;;2.91;75.19;148396.59;1716890;83;21624;-58
2022/03/16 10:04:00;;;;;;;13.60;4.50;;;;;;;2.96;75.38;148409.48;1717278;83;21044;-58
2022/03/16 10:06:27;;;;;;;9.70;4.37;;;;;;;3.04;75.29;148430.16;1717333;82;20967;-58
2022/03/16 10:14:25;;;;;;;10.00;4.45;;;;;;;3.06;74.86;148435.31;1716797;83;28220;-58
2022/03/16 10:19:52;;;;;;;12.78;3.67;;;;;;;3.14;74.04;148455.94;1716756;83;21091;-58
2022/03/16 10:22:30;;;;;;;12.82;4.08;;;;;;;3.10;72.72;148445.62;1716626;83;21300;-59
2022/03/16 10:25:03;;;;;;;9.35;3.70;;;;;;;3.06;72.66;148435.31;1715978;83;21110;-58
2022/03/16 10:27:31;;;;;;;13.50;3.45;;;;;;;3.02;73.05;148425.00;1716166;83;21090;-57
2022/03/16 10:29:58;;;;;;;8.93;4.03;;;;;;;2.99;73.50;148417.27;1715850;83;21083;-57
2022/03/16 10:32:25;;;;;;;10.63;3.95;;;;;;;3.01;73.37;148423.69;1717470;81;21245;-58
2022/03/16 10:34:55;;;;;;;9.38;3.55;;;;;;;3.01;72.85;148422.42;1695664;83;21513;-59
2022/03/16 10:37:23;;;;;;;10.00;3.67;;;;;;;3.00;72.71;148419.84;1680510;85;21078;-58
2022/03/16 10:39:52;;;;;;;8.73;3.58;;;;;;;2.99;72.65;148417.27;1692821;84;21118;-59
2022/03/16 10:48:15;;;;;;;9.30;2.85;;;;;;;3.04;70.85;148430.16;1720972;83;21119;-58
2022/03/16 10:50:44;;;;;;;8.80;3.55;;;;;;;3.07;70.50;148437.89;1736852;82;21109;-58
2022/03/16 10:53:14;;;;;;;9.30;3.08;;;;;;;3.12;69.76;148450.78;1720671;82;21574;-58
2022/03/16 10:55:41;;;;;;;7.85;3.10;;;;;;;3.18;68.65;148463.67;1736920;82;21078;-58
2022/03/16 10:58:08;;;;;;;6.47;2.90;;;;;;;3.17;67.87;148462.41;1720545;83;21045;-57
2022/03/16 11:00:39;;;;;;;5.67;2.60;;;;;;;3.11;66.94;148448.20;1737634;82;21540;-58
2022/03/16 11:03:19;;;;;;;6.87;2.60;;;;;;;3.06;65.52;148435.31;1721027;83;20967;-58
2022/03/16 11:05:43;;;;;;;4.85;2.40;;;;;;;3.01;64.82;148422.42;1736320;82;21043;-58
2022/03/16 11:08:11;;;;;;;8.30;2.77;;;;;;;3.00;65.00;148419.84;1721194;83;20982;-58
2022/03/16 11:10:41;;;;;;;4.90;2.22;;;;;;;3.05;65.14;148432.73;1737581;82;21047;-59
2022/03/16 11:13:28;;;;;;;4.37;2.30;;;;;;;3.08;64.27;148440.47;1720674;83;21140;-58
2022/03/16 11:15:59;;;;;;;6.60;2.20;;;;;;;3.11;63.33;148448.20;1713299;82;21174;-59
2022/03/16 11:18:27;;;;;;;5.55;2.25;;;;;;;3.06;62.84;148434.00;1728576;82;21015;-59
2022/03/16 11:20:59;;;;;;;7.28;2.30;;;;;;;3.00;62.32;148421.11;1729533;82;21144;-58
2022/03/16 11:26:42;;;;;;;7.42;2.20;;;;;;;3.06;62.55;148434.00;1728978;82;21238;-59
2022/03/16 11:29:26;;;;;;;5.83;1.90;;;;;;;3.13;62.59;148453.36;1729164;82;20948;-60
2022/03/16 11:32:13;;;;;;;5.20;2.10;;;;;;;3.19;60.51;148466.25;1729468;82;21050;-58
2022/03/16 11:34:56;;;;;;;7.28;2.20;;;;;;;3.20;60.73;148468.83;1726514;82;21620;-59
2022/03/16 11:37:35;;;;;;;8.33;1.65;;;;;;;3.26;59.62;148485.63;1726862;83;21054;-58
2022/03/16 11:40:09;;;;;;;6.75;1.90;;;;;;;3.27;59.90;148486.94;1778971;80;21949;-60
2022/03/16 11:43:04;;;;;;;6.03;1.80;;;;;;;3.32;59.29;148499.81;1778771;80;21055;-58
2022/03/16 11:45:38;;;;;;;6.67;1.70;;;;;;;3.31;58.71;148497.25;1779094;80;21036;-59
2022/03/16 11:48:34;;;;;;;3.42;1.72;;;;;;;3.31;57.90;148497.25;1741981;82;21686;-59